sensor_id;sensor_type;location;lat;lon;timestamp;P1;durP1;ratioP1;P2;durP2;ratioP2
6661;SDS011;3367;48.714;8.994;2023-07-20T00:00:30;3.17;;;2.40;;
6661;SDS011;3367;48.714;8.994;2023-07-20T00:03:11;3.17;;;2.20;;
6661;SDS011;3367;48.714;8.994;2023-07-20T00:05:44;3.30;;;2.57;;
6661;SDS011;3367;48.714;8.994;2023-07-20T00:08:14;4.37;;;2.97;;
6661;SDS011;3367;48.714;8.994;2023-07-20T00:10:41;6.20;;;2.67;;
6661;SDS011;3367;48.714;8.994;2023-07-20T00:13:08;3.57;;;2.50;;
6661;SDS011;3367;48.714;8.994;2023-07-20T00:15:38;3.00;;;2.70;;
6661;SDS011;3367;48.714;8.994;2023-07-20T00:18:05;4.50;;;2.23;;
6661;SDS011;3367;48.714;8.994;2023-07-20T00:20:34;4.00;;;2.67;;
6661;SDS011;3367;48.714;8.994;2023-07-20T00:23:00;2.30;;;2.20;;
6661;SDS011;3367;48.714;8.994;2023-07-20T00:25:27;2.20;;;2.10;;
6661;SDS011;3367;48.714;8.994;2023-07-20T00:28:09;2.40;;;2.20;;
6661;SDS011;3367;48.714;8.994;2023-07-20T00:30:45;2.63;;;2.27;;
6661;SDS011;3367;48.714;8.994;2023-07-20T00:33:12;2.53;;;2.20;;
6661;SDS011;3367;48.714;8.994;2023-07-20T00:35:47;4.93;;;2.60;;
6661;SDS011;3367;48.714;8.994;2023-07-20T00:38:14;4.33;;;2.90;;
6661;SDS011;3367;48.714;8.994;2023-07-20T00:40:43;2.27;;;2.10;;
6661;SDS011;3367;48.714;8.994;2023-07-20T00:43:14;4.90;;;2.27;;
6661;SDS011;3367;48.714;8.994;2023-07-20T00:45:44;3.07;;;2.10;;
6661;SDS011;3367;48.714;8.994;2023-07-20T00:48:13;2.30;;;2.00;;
6661;SDS011;3367;48.714;8.994;2023-07-20T00:50:44;2.70;;;2.50;;
6661;SDS011;3367;48.714;8.994;2023-07-20T00:53:16;2.80;;;2.40;;
6661;SDS011;3367;48.714;8.994;2023-07-20T00:55:43;5.23;;;2.40;;
6661;SDS011;3367;48.714;8.994;2023-07-20T00:58:15;3.20;;;2.70;;
6661;SDS011;3367;48.714;8.994;2023-07-20T01:00:48;4.40;;;2.93;;
6661;SDS011;3367;48.714;8.994;2023-07-20T01:03:15;2.73;;;2.47;;
6661;SDS011;3367;48.714;8.994;2023-07-20T01:05:47;3.60;;;2.33;;
6661;SDS011;3367;48.714;8.994;2023-07-20T01:08:23;2.53;;;2.33;;
6661;SDS011;3367;48.714;8.994;2023-07-20T01:11:02;2.20;;;2.00;;
6661;SDS011;3367;48.714;8.994;2023-07-20T01:13:40;4.07;;;2.50;;
6661;SDS011;3367;48.714;8.994;2023-07-20T01:16:10;2.83;;;2.23;;
6661;SDS011;3367;48.714;8.994;2023-07-20T01:18:40;4.67;;;2.63;;
6661;SDS011;3367;48.714;8.994;2023-07-20T01:21:09;3.53;;;2.40;;
6661;SDS011;3367;48.714;8.994;2023-07-20T01:23:49;2.83;;;2.50;;
6661;SDS011;3367;48.714;8.994;2023-07-20T01:26:57;5.13;;;2.73;;
6661;SDS011;3367;48.714;8.994;2023-07-20T01:29:52;2.70;;;2.10;;
6661;SDS011;3367;48.714;8.994;2023-07-20T01:32:31;4.20;;;2.47;;
6661;SDS011;3367;48.714;8.994;2023-07-20T01:35:00;2.70;;;2.47;;
6661;SDS011;3367;48.714;8.994;2023-07-20T01:37:30;3.23;;;2.50;;
6661;SDS011;3367;48.714;8.994;2023-07-20T01:39:59;2.40;;;2.30;;
6661;SDS011;3367;48.714;8.994;2023-07-20T01:42:27;3.80;;;2.80;;
6661;SDS011;3367;48.714;8.994;2023-07-20T01:44:57;3.50;;;2.17;;
6661;SDS011;3367;48.714;8.994;2023-07-20T01:47:24;4.00;;;2.43;;
6661;SDS011;3367;48.714;8.994;2023-07-20T01:49:54;3.03;;;2.20;;
6661;SDS011;3367;48.714;8.994;2023-07-20T01:54:49;2.40;;;2.20;;
6661;SDS011;3367;48.714;8.994;2023-07-20T01:57:16;2.50;;;2.23;;
6661;SDS011;3367;48.714;8.994;2023-07-20T01:59:43;3.10;;;2.23;;
6661;SDS011;3367;48.714;8.994;2023-07-20T02:02:10;2.97;;;2.33;;
6661;SDS011;3367;48.714;8.994;2023-07-20T02:04:36;3.10;;;2.20;;
6661;SDS011;3367;48.714;8.994;2023-07-20T02:07:05;2.47;;;2.10;;
6661;SDS011;3367;48.714;8.994;2023-07-20T02:09:32;5.23;;;2.50;;
6661;SDS011;3367;48.714;8.994;2023-07-20T02:11:59;3.20;;;2.20;;
6661;SDS011;3367;48.714;8.994;2023-07-20T02:14:26;3.50;;;2.67;;
6661;SDS011;3367;48.714;8.994;2023-07-20T02:16:52;2.50;;;1.93;;
6661;SDS011;3367;48.714;8.994;2023-07-20T02:19:24;1.90;;;1.80;;
6661;SDS011;3367;48.714;8.994;2023-07-20T02:21:51;2.23;;;2.13;;
6661;SDS011;3367;48.714;8.994;2023-07-20T02:24:19;6.20;;;2.40;;
6661;SDS011;3367;48.714;8.994;2023-07-20T02:26:46;2.47;;;2.27;;
6661;SDS011;3367;48.714;8.994;2023-07-20T02:29:13;2.80;;;2.60;;
6661;SDS011;3367;48.714;8.994;2023-07-20T02:31:40;3.13;;;2.27;;
6661;SDS011;3367;48.714;8.994;2023-07-20T02:34:08;4.60;;;2.57;;
6661;SDS011;3367;48.714;8.994;2023-07-20T02:36:35;3.03;;;2.30;;
6661;SDS011;3367;48.714;8.994;2023-07-20T02:39:02;2.27;;;2.07;;
6661;SDS011;3367;48.714;8.994;2023-07-20T02:41:30;2.90;;;2.70;;
6661;SDS011;3367;48.714;8.994;2023-07-20T02:43:59;3.80;;;2.73;;
6661;SDS011;3367;48.714;8.994;2023-07-20T02:46:26;3.07;;;2.77;;
6661;SDS011;3367;48.714;8.994;2023-07-20T02:48:55;5.40;;;2.20;;
6661;SDS011;3367;48.714;8.994;2023-07-20T02:51:22;2.73;;;2.30;;
6661;SDS011;3367;48.714;8.994;2023-07-20T02:53:48;5.90;;;2.70;;
6661;SDS011;3367;48.714;8.994;2023-07-20T02:56:15;3.20;;;2.67;;
6661;SDS011;3367;48.714;8.994;2023-07-20T02:58:44;3.73;;;2.00;;
6661;SDS011;3367;48.714;8.994;2023-07-20T03:01:11;4.90;;;2.53;;
6661;SDS011;3367;48.714;8.994;2023-07-20T03:03:40;5.27;;;2.20;;
6661;SDS011;3367;48.714;8.994;2023-07-20T03:06:10;3.40;;;2.70;;
6661;SDS011;3367;48.714;8.994;2023-07-20T03:08:37;5.37;;;2.57;;
6661;SDS011;3367;48.714;8.994;2023-07-20T03:11:04;2.80;;;2.30;;
6661;SDS011;3367;48.714;8.994;2023-07-20T03:13:31;3.27;;;2.73;;
6661;SDS011;3367;48.714;8.994;2023-07-20T03:15:59;4.23;;;2.30;;
6661;SDS011;3367;48.714;8.994;2023-07-20T03:18:26;3.40;;;2.70;;
6661;SDS011;3367;48.714;8.994;2023-07-20T03:20:53;2.50;;;2.30;;
6661;SDS011;3367;48.714;8.994;2023-07-20T03:23:20;2.43;;;2.30;;
6661;SDS011;3367;48.714;8.994;2023-07-20T03:25:47;2.60;;;2.40;;
6661;SDS011;3367;48.714;8.994;2023-07-20T03:28:14;2.90;;;2.60;;
6661;SDS011;3367;48.714;8.994;2023-07-20T03:30:41;4.00;;;2.90;;
6661;SDS011;3367;48.714;8.994;2023-07-20T03:33:09;2.57;;;2.30;;
6661;SDS011;3367;48.714;8.994;2023-07-20T03:35:36;4.47;;;2.83;;
6661;SDS011;3367;48.714;8.994;2023-07-20T03:38:03;2.60;;;2.40;;
6661;SDS011;3367;48.714;8.994;2023-07-20T03:40:30;2.30;;;2.10;;
6661;SDS011;3367;48.714;8.994;2023-07-20T03:42:57;4.00;;;2.60;;
6661;SDS011;3367;48.714;8.994;2023-07-20T03:45:24;3.57;;;2.27;;
6661;SDS011;3367;48.714;8.994;2023-07-20T03:47:52;3.77;;;2.80;;
6661;SDS011;3367;48.714;8.994;2023-07-20T03:50:20;5.20;;;3.33;;
6661;SDS011;3367;48.714;8.994;2023-07-20T03:52:47;3.03;;;2.77;;
6661;SDS011;3367;48.714;8.994;2023-07-20T03:55:14;2.47;;;2.27;;
6661;SDS011;3367;48.714;8.994;2023-07-20T03:57:41;3.37;;;2.43;;
6661;SDS011;3367;48.714;8.994;2023-07-20T04:00:08;2.17;;;2.03;;
6661;SDS011;3367;48.714;8.994;2023-07-20T04:02:37;3.80;;;2.67;;
6661;SDS011;3367;48.714;8.994;2023-07-20T04:05:04;3.10;;;2.90;;
6661;SDS011;3367;48.714;8.994;2023-07-20T04:07:32;2.50;;;2.30;;
6661;SDS011;3367;48.714;8.994;2023-07-20T04:09:59;3.80;;;2.40;;
6661;SDS011;3367;48.714;8.994;2023-07-20T04:12:26;6.77;;;3.10;;
6661;SDS011;3367;48.714;8.994;2023-07-20T04:14:53;2.83;;;2.57;;
6661;SDS011;3367;48.714;8.994;2023-07-20T04:17:20;3.00;;;2.17;;
6661;SDS011;3367;48.714;8.994;2023-07-20T04:19:47;2.87;;;2.67;;
6661;SDS011;3367;48.714;8.994;2023-07-20T04:22:14;2.77;;;2.57;;
6661;SDS011;3367;48.714;8.994;2023-07-20T04:24:44;4.17;;;2.40;;
6661;SDS011;3367;48.714;8.994;2023-07-20T04:27:11;3.00;;;2.30;;
6661;SDS011;3367;48.714;8.994;2023-07-20T04:29:47;5.20;;;2.43;;
6661;SDS011;3367;48.714;8.994;2023-07-20T04:32:18;4.00;;;2.30;;
6661;SDS011;3367;48.714;8.994;2023-07-20T04:34:45;3.43;;;2.33;;
6661;SDS011;3367;48.714;8.994;2023-07-20T04:37:27;2.77;;;2.57;;
6661;SDS011;3367;48.714;8.994;2023-07-20T04:40:10;4.87;;;2.30;;
6661;SDS011;3367;48.714;8.994;2023-07-20T04:42:37;2.93;;;2.50;;
6661;SDS011;3367;48.714;8.994;2023-07-20T04:45:04;2.70;;;2.50;;
6661;SDS011;3367;48.714;8.994;2023-07-20T04:47:32;3.23;;;2.43;;
6661;SDS011;3367;48.714;8.994;2023-07-20T04:49:59;4.27;;;2.40;;
6661;SDS011;3367;48.714;8.994;2023-07-20T04:52:25;5.93;;;2.60;;
6661;SDS011;3367;48.714;8.994;2023-07-20T04:54:52;3.90;;;2.73;;
6661;SDS011;3367;48.714;8.994;2023-07-20T04:57:20;4.43;;;2.60;;
6661;SDS011;3367;48.714;8.994;2023-07-20T04:59:50;2.93;;;2.30;;
6661;SDS011;3367;48.714;8.994;2023-07-20T05:02:17;3.00;;;2.20;;
6661;SDS011;3367;48.714;8.994;2023-07-20T05:04:44;4.40;;;2.33;;
6661;SDS011;3367;48.714;8.994;2023-07-20T05:07:11;9.13;;;3.20;;
6661;SDS011;3367;48.714;8.994;2023-07-20T05:09:38;3.43;;;2.60;;
6661;SDS011;3367;48.714;8.994;2023-07-20T05:12:05;4.17;;;2.73;;
6661;SDS011;3367;48.714;8.994;2023-07-20T05:14:34;2.87;;;2.53;;
6661;SDS011;3367;48.714;8.994;2023-07-20T05:17:01;3.90;;;2.27;;
6661;SDS011;3367;48.714;8.994;2023-07-20T05:19:28;3.70;;;2.90;;
6661;SDS011;3367;48.714;8.994;2023-07-20T05:21:55;5.63;;;2.83;;
6661;SDS011;3367;48.714;8.994;2023-07-20T05:24:22;6.27;;;2.37;;
6661;SDS011;3367;48.714;8.994;2023-07-20T05:26:49;3.93;;;2.60;;
6661;SDS011;3367;48.714;8.994;2023-07-20T05:29:16;3.20;;;2.90;;
6661;SDS011;3367;48.714;8.994;2023-07-20T05:31:44;3.33;;;2.50;;
6661;SDS011;3367;48.714;8.994;2023-07-20T05:34:11;11.00;;;2.17;;
6661;SDS011;3367;48.714;8.994;2023-07-20T05:36:37;7.40;;;2.60;;
6661;SDS011;3367;48.714;8.994;2023-07-20T05:39:04;4.40;;;3.37;;
6661;SDS011;3367;48.714;8.994;2023-07-20T05:41:31;3.53;;;2.30;;
6661;SDS011;3367;48.714;8.994;2023-07-20T05:43:58;2.53;;;2.30;;
6661;SDS011;3367;48.714;8.994;2023-07-20T05:46:24;3.20;;;2.30;;
6661;SDS011;3367;48.714;8.994;2023-07-20T05:48:52;2.73;;;2.30;;
6661;SDS011;3367;48.714;8.994;2023-07-20T05:51:19;5.10;;;2.70;;
6661;SDS011;3367;48.714;8.994;2023-07-20T05:53:46;3.00;;;2.40;;
6661;SDS011;3367;48.714;8.994;2023-07-20T05:56:13;4.80;;;2.50;;
6661;SDS011;3367;48.714;8.994;2023-07-20T05:58:40;3.03;;;2.27;;
6661;SDS011;3367;48.714;8.994;2023-07-20T06:01:06;3.00;;;2.13;;
6661;SDS011;3367;48.714;8.994;2023-07-20T06:03:33;3.57;;;2.20;;
6661;SDS011;3367;48.714;8.994;2023-07-20T06:06:01;3.90;;;2.40;;
6661;SDS011;3367;48.714;8.994;2023-07-20T06:08:29;10.43;;;2.53;;
6661;SDS011;3367;48.714;8.994;2023-07-20T06:10:56;3.60;;;2.60;;
6661;SDS011;3367;48.714;8.994;2023-07-20T06:13:23;3.03;;;2.50;;
6661;SDS011;3367;48.714;8.994;2023-07-20T06:15:50;7.60;;;2.93;;
6661;SDS011;3367;48.714;8.994;2023-07-20T06:18:17;9.20;;;2.63;;
6661;SDS011;3367;48.714;8.994;2023-07-20T06:20:48;4.93;;;2.57;;
6661;SDS011;3367;48.714;8.994;2023-07-20T06:23:16;5.97;;;1.90;;
6661;SDS011;3367;48.714;8.994;2023-07-20T06:25:43;2.53;;;1.87;;
6661;SDS011;3367;48.714;8.994;2023-07-20T06:28:10;6.67;;;2.67;;
6661;SDS011;3367;48.714;8.994;2023-07-20T06:30:37;6.83;;;2.23;;
6661;SDS011;3367;48.714;8.994;2023-07-20T06:33:03;7.17;;;2.40;;
6661;SDS011;3367;48.714;8.994;2023-07-20T06:35:30;4.27;;;2.43;;
6661;SDS011;3367;48.714;8.994;2023-07-20T06:37:57;8.33;;;2.50;;
6661;SDS011;3367;48.714;8.994;2023-07-20T06:40:26;5.67;;;1.90;;
6661;SDS011;3367;48.714;8.994;2023-07-20T06:42:53;2.40;;;2.17;;
6661;SDS011;3367;48.714;8.994;2023-07-20T06:45:20;6.87;;;1.90;;
6661;SDS011;3367;48.714;8.994;2023-07-20T06:47:47;5.57;;;2.20;;
6661;SDS011;3367;48.714;8.994;2023-07-20T06:50:13;3.43;;;1.90;;
6661;SDS011;3367;48.714;8.994;2023-07-20T06:52:40;3.00;;;2.33;;
6661;SDS011;3367;48.714;8.994;2023-07-20T06:55:07;2.43;;;2.00;;
6661;SDS011;3367;48.714;8.994;2023-07-20T06:57:36;4.47;;;2.27;;
6661;SDS011;3367;48.714;8.994;2023-07-20T07:00:02;4.13;;;2.10;;
6661;SDS011;3367;48.714;8.994;2023-07-20T07:02:31;2.57;;;2.37;;
6661;SDS011;3367;48.714;8.994;2023-07-20T07:04:59;2.30;;;2.10;;
6661;SDS011;3367;48.714;8.994;2023-07-20T07:07:25;2.90;;;2.20;;
6661;SDS011;3367;48.714;8.994;2023-07-20T07:09:52;2.90;;;2.20;;
6661;SDS011;3367;48.714;8.994;2023-07-20T07:12:19;3.53;;;2.10;;
6661;SDS011;3367;48.714;8.994;2023-07-20T07:14:47;7.43;;;2.17;;
6661;SDS011;3367;48.714;8.994;2023-07-20T07:17:13;2.00;;;1.87;;
6661;SDS011;3367;48.714;8.994;2023-07-20T07:19:40;3.67;;;2.50;;
6661;SDS011;3367;48.714;8.994;2023-07-20T07:22:07;2.80;;;2.53;;
6661;SDS011;3367;48.714;8.994;2023-07-20T07:24:33;7.13;;;2.33;;
6661;SDS011;3367;48.714;8.994;2023-07-20T07:27:01;4.17;;;2.30;;
6661;SDS011;3367;48.714;8.994;2023-07-20T07:29:28;5.37;;;2.20;;
6661;SDS011;3367;48.714;8.994;2023-07-20T07:31:57;3.87;;;2.30;;
6661;SDS011;3367;48.714;8.994;2023-07-20T07:34:23;2.03;;;1.70;;
6661;SDS011;3367;48.714;8.994;2023-07-20T07:36:51;4.60;;;3.13;;
6661;SDS011;3367;48.714;8.994;2023-07-20T07:39:18;4.30;;;2.47;;
6661;SDS011;3367;48.714;8.994;2023-07-20T07:41:45;2.80;;;2.60;;
6661;SDS011;3367;48.714;8.994;2023-07-20T07:44:12;3.20;;;2.03;;
6661;SDS011;3367;48.714;8.994;2023-07-20T07:46:38;2.50;;;2.23;;
6661;SDS011;3367;48.714;8.994;2023-07-20T07:49:08;2.70;;;1.93;;
6661;SDS011;3367;48.714;8.994;2023-07-20T07:51:34;2.07;;;1.97;;
6661;SDS011;3367;48.714;8.994;2023-07-20T07:54:01;10.30;;;2.90;;
6661;SDS011;3367;48.714;8.994;2023-07-20T07:56:28;3.00;;;2.00;;
6661;SDS011;3367;48.714;8.994;2023-07-20T07:58:54;4.37;;;1.87;;
6661;SDS011;3367;48.714;8.994;2023-07-20T08:01:21;2.70;;;2.40;;
6661;SDS011;3367;48.714;8.994;2023-07-20T08:03:48;5.07;;;2.23;;
6661;SDS011;3367;48.714;8.994;2023-07-20T08:06:17;4.57;;;2.47;;
6661;SDS011;3367;48.714;8.994;2023-07-20T08:08:44;1.80;;;1.70;;
6661;SDS011;3367;48.714;8.994;2023-07-20T08:11:10;5.20;;;1.93;;
6661;SDS011;3367;48.714;8.994;2023-07-20T08:13:37;2.57;;;2.00;;
6661;SDS011;3367;48.714;8.994;2023-07-20T08:16:04;3.53;;;2.10;;
6661;SDS011;3367;48.714;8.994;2023-07-20T08:18:30;5.17;;;2.20;;
6661;SDS011;3367;48.714;8.994;2023-07-20T08:20:57;3.80;;;2.23;;
6661;SDS011;3367;48.714;8.994;2023-07-20T08:23:25;4.37;;;2.00;;
6661;SDS011;3367;48.714;8.994;2023-07-20T08:25:52;2.33;;;2.10;;
6661;SDS011;3367;48.714;8.994;2023-07-20T08:28:19;2.13;;;1.93;;
6661;SDS011;3367;48.714;8.994;2023-07-20T08:30:46;3.13;;;1.77;;
6661;SDS011;3367;48.714;8.994;2023-07-20T08:33:15;2.57;;;2.40;;
6661;SDS011;3367;48.714;8.994;2023-07-20T08:35:44;2.87;;;2.10;;
6661;SDS011;3367;48.714;8.994;2023-07-20T08:38:11;2.57;;;1.87;;
6661;SDS011;3367;48.714;8.994;2023-07-20T08:40:40;3.43;;;2.53;;
6661;SDS011;3367;48.714;8.994;2023-07-20T08:43:08;2.83;;;2.50;;
6661;SDS011;3367;48.714;8.994;2023-07-20T08:45:36;2.37;;;2.17;;
6661;SDS011;3367;48.714;8.994;2023-07-20T08:48:05;3.37;;;2.27;;
6661;SDS011;3367;48.714;8.994;2023-07-20T08:50:33;3.67;;;2.20;;
6661;SDS011;3367;48.714;8.994;2023-07-20T08:53:00;4.57;;;2.13;;
6661;SDS011;3367;48.714;8.994;2023-07-20T08:55:28;1.90;;;1.80;;
6661;SDS011;3367;48.714;8.994;2023-07-20T08:57:57;2.27;;;1.93;;
6661;SDS011;3367;48.714;8.994;2023-07-20T09:00:25;1.83;;;1.73;;
6661;SDS011;3367;48.714;8.994;2023-07-20T09:02:53;3.53;;;2.03;;
6661;SDS011;3367;48.714;8.994;2023-07-20T09:05:21;2.30;;;2.10;;
6661;SDS011;3367;48.714;8.994;2023-07-20T09:07:51;2.33;;;2.23;;
6661;SDS011;3367;48.714;8.994;2023-07-20T09:10:19;2.10;;;1.40;;
6661;SDS011;3367;48.714;8.994;2023-07-20T09:12:47;1.83;;;1.73;;
6661;SDS011;3367;48.714;8.994;2023-07-20T09:15:15;3.30;;;2.00;;
6661;SDS011;3367;48.714;8.994;2023-07-20T09:17:45;2.50;;;1.80;;
6661;SDS011;3367;48.714;8.994;2023-07-20T09:20:12;3.67;;;1.60;;
6661;SDS011;3367;48.714;8.994;2023-07-20T09:22:41;1.60;;;1.50;;
6661;SDS011;3367;48.714;8.994;2023-07-20T09:25:10;2.53;;;1.90;;
6661;SDS011;3367;48.714;8.994;2023-07-20T09:27:38;1.70;;;1.50;;
6661;SDS011;3367;48.714;8.994;2023-07-20T09:30:05;1.53;;;1.43;;
6661;SDS011;3367;48.714;8.994;2023-07-20T09:32:39;5.57;;;1.77;;
6661;SDS011;3367;48.714;8.994;2023-07-20T09:35:12;1.97;;;1.80;;
6661;SDS011;3367;48.714;8.994;2023-07-20T09:37:39;1.50;;;1.40;;
6661;SDS011;3367;48.714;8.994;2023-07-20T09:40:06;5.63;;;1.80;;
6661;SDS011;3367;48.714;8.994;2023-07-20T09:42:34;2.07;;;1.90;;
6661;SDS011;3367;48.714;8.994;2023-07-20T09:45:02;1.43;;;1.33;;
6661;SDS011;3367;48.714;8.994;2023-07-20T09:47:33;2.53;;;1.60;;
6661;SDS011;3367;48.714;8.994;2023-07-20T09:50:04;1.83;;;1.70;;
6661;SDS011;3367;48.714;8.994;2023-07-20T09:52:35;3.43;;;1.70;;
6661;SDS011;3367;48.714;8.994;2023-07-20T09:55:04;5.33;;;1.70;;
6661;SDS011;3367;48.714;8.994;2023-07-20T09:57:32;3.60;;;1.80;;
6661;SDS011;3367;48.714;8.994;2023-07-20T10:00:00;1.83;;;1.40;;
6661;SDS011;3367;48.714;8.994;2023-07-20T10:02:30;1.80;;;1.40;;
6661;SDS011;3367;48.714;8.994;2023-07-20T10:05:00;1.60;;;1.50;;
6661;SDS011;3367;48.714;8.994;2023-07-20T10:07:30;3.00;;;1.70;;
6661;SDS011;3367;48.714;8.994;2023-07-20T10:09:59;2.07;;;1.70;;
6661;SDS011;3367;48.714;8.994;2023-07-20T10:12:28;3.90;;;2.30;;
6661;SDS011;3367;48.714;8.994;2023-07-20T10:14:58;2.60;;;1.53;;
6661;SDS011;3367;48.714;8.994;2023-07-20T10:17:40;1.80;;;1.60;;
6661;SDS011;3367;48.714;8.994;2023-07-20T10:20:14;1.50;;;1.40;;
6661;SDS011;3367;48.714;8.994;2023-07-20T10:22:47;3.20;;;1.90;;
6661;SDS011;3367;48.714;8.994;2023-07-20T10:25:15;2.13;;;1.93;;
6661;SDS011;3367;48.714;8.994;2023-07-20T10:27:43;1.67;;;1.57;;
6661;SDS011;3367;48.714;8.994;2023-07-20T10:30:11;1.60;;;1.50;;
6661;SDS011;3367;48.714;8.994;2023-07-20T10:32:39;9.33;;;1.47;;
6661;SDS011;3367;48.714;8.994;2023-07-20T10:35:11;1.30;;;1.20;;
6661;SDS011;3367;48.714;8.994;2023-07-20T10:37:47;3.20;;;1.70;;
6661;SDS011;3367;48.714;8.994;2023-07-20T10:40:25;1.93;;;1.23;;
6661;SDS011;3367;48.714;8.994;2023-07-20T10:42:56;4.90;;;1.57;;
6661;SDS011;3367;48.714;8.994;2023-07-20T10:45:32;3.23;;;1.93;;
6661;SDS011;3367;48.714;8.994;2023-07-20T10:48:02;1.70;;;1.60;;
6661;SDS011;3367;48.714;8.994;2023-07-20T10:50:30;1.70;;;1.60;;
6661;SDS011;3367;48.714;8.994;2023-07-20T10:53:10;3.37;;;1.83;;
6661;SDS011;3367;48.714;8.994;2023-07-20T10:55:38;3.73;;;1.70;;
6661;SDS011;3367;48.714;8.994;2023-07-20T10:58:06;1.60;;;1.50;;
6661;SDS011;3367;48.714;8.994;2023-07-20T11:00:33;1.43;;;1.33;;
6661;SDS011;3367;48.714;8.994;2023-07-20T11:03:00;1.60;;;1.50;;
6661;SDS011;3367;48.714;8.994;2023-07-20T11:05:33;1.33;;;1.10;;
6661;SDS011;3367;48.714;8.994;2023-07-20T11:08:05;1.97;;;1.37;;
6661;SDS011;3367;48.714;8.994;2023-07-20T11:10:37;1.47;;;1.37;;
6661;SDS011;3367;48.714;8.994;2023-07-20T11:13:21;1.30;;;1.20;;
6661;SDS011;3367;48.714;8.994;2023-07-20T11:16:01;1.90;;;1.70;;
6661;SDS011;3367;48.714;8.994;2023-07-20T11:18:29;1.40;;;1.30;;
6661;SDS011;3367;48.714;8.994;2023-07-20T11:20:57;1.40;;;1.20;;
6661;SDS011;3367;48.714;8.994;2023-07-20T11:23:24;1.43;;;1.33;;
6661;SDS011;3367;48.714;8.994;2023-07-20T11:25:52;1.40;;;1.20;;
6661;SDS011;3367;48.714;8.994;2023-07-20T11:28:19;1.53;;;1.43;;
6661;SDS011;3367;48.714;8.994;2023-07-20T11:30:49;2.70;;;1.40;;
6661;SDS011;3367;48.714;8.994;2023-07-20T11:33:18;1.50;;;1.40;;
6661;SDS011;3367;48.714;8.994;2023-07-20T11:35:45;2.13;;;1.27;;
6661;SDS011;3367;48.714;8.994;2023-07-20T11:38:16;1.50;;;1.40;;
6661;SDS011;3367;48.714;8.994;2023-07-20T11:40:43;1.17;;;1.07;;
6661;SDS011;3367;48.714;8.994;2023-07-20T11:43:12;1.33;;;1.23;;
6661;SDS011;3367;48.714;8.994;2023-07-20T11:45:39;1.30;;;1.10;;
6661;SDS011;3367;48.714;8.994;2023-07-20T11:48:06;3.57;;;1.60;;
6661;SDS011;3367;48.714;8.994;2023-07-20T11:50:38;2.17;;;1.40;;
6661;SDS011;3367;48.714;8.994;2023-07-20T11:53:05;1.70;;;1.60;;
6661;SDS011;3367;48.714;8.994;2023-07-20T11:55:32;2.17;;;1.70;;
6661;SDS011;3367;48.714;8.994;2023-07-20T11:58:03;1.93;;;1.33;;
6661;SDS011;3367;48.714;8.994;2023-07-20T12:00:31;5.97;;;1.47;;
6661;SDS011;3367;48.714;8.994;2023-07-20T12:02:59;2.43;;;1.73;;
6661;SDS011;3367;48.714;8.994;2023-07-20T12:05:26;1.50;;;1.40;;
6661;SDS011;3367;48.714;8.994;2023-07-20T12:07:54;3.90;;;1.70;;
6661;SDS011;3367;48.714;8.994;2023-07-20T12:10:23;2.17;;;1.83;;
6661;SDS011;3367;48.714;8.994;2023-07-20T12:12:51;1.73;;;1.60;;
6661;SDS011;3367;48.714;8.994;2023-07-20T12:15:20;2.03;;;1.30;;
6661;SDS011;3367;48.714;8.994;2023-07-20T12:17:50;3.33;;;1.70;;
6661;SDS011;3367;48.714;8.994;2023-07-20T12:20:25;2.10;;;1.53;;
6661;SDS011;3367;48.714;8.994;2023-07-20T12:22:52;1.20;;;1.10;;
6661;SDS011;3367;48.714;8.994;2023-07-20T12:25:21;4.60;;;1.33;;
6661;SDS011;3367;48.714;8.994;2023-07-20T12:27:48;1.60;;;1.30;;
6661;SDS011;3367;48.714;8.994;2023-07-20T12:30:15;1.20;;;1.10;;
6661;SDS011;3367;48.714;8.994;2023-07-20T12:32:42;1.97;;;1.40;;
6661;SDS011;3367;48.714;8.994;2023-07-20T12:35:10;4.23;;;1.10;;
6661;SDS011;3367;48.714;8.994;2023-07-20T12:37:39;1.70;;;1.60;;
6661;SDS011;3367;48.714;8.994;2023-07-20T12:40:06;3.00;;;1.57;;
6661;SDS011;3367;48.714;8.994;2023-07-20T12:42:35;1.27;;;1.17;;
6661;SDS011;3367;48.714;8.994;2023-07-20T12:45:03;2.53;;;1.07;;
6661;SDS011;3367;48.714;8.994;2023-07-20T12:47:30;2.50;;;1.30;;
6661;SDS011;3367;48.714;8.994;2023-07-20T12:49:57;3.53;;;1.30;;
6661;SDS011;3367;48.714;8.994;2023-07-20T12:52:25;3.93;;;1.23;;
6661;SDS011;3367;48.714;8.994;2023-07-20T12:54:52;1.40;;;1.30;;
6661;SDS011;3367;48.714;8.994;2023-07-20T12:57:18;3.93;;;1.30;;
6661;SDS011;3367;48.714;8.994;2023-07-20T12:59:45;1.70;;;1.20;;
6661;SDS011;3367;48.714;8.994;2023-07-20T13:02:12;2.50;;;1.27;;
6661;SDS011;3367;48.714;8.994;2023-07-20T13:04:38;1.50;;;1.40;;
6661;SDS011;3367;48.714;8.994;2023-07-20T13:07:07;1.80;;;1.37;;
6661;SDS011;3367;48.714;8.994;2023-07-20T13:09:38;1.63;;;1.40;;
6661;SDS011;3367;48.714;8.994;2023-07-20T13:12:05;2.93;;;1.47;;
6661;SDS011;3367;48.714;8.994;2023-07-20T13:14:32;1.97;;;1.60;;
6661;SDS011;3367;48.714;8.994;2023-07-20T13:16:59;2.43;;;1.33;;
6661;SDS011;3367;48.714;8.994;2023-07-20T13:19:25;2.53;;;1.50;;
6661;SDS011;3367;48.714;8.994;2023-07-20T13:21:53;1.57;;;1.47;;
6661;SDS011;3367;48.714;8.994;2023-07-20T13:24:19;1.63;;;1.33;;
6661;SDS011;3367;48.714;8.994;2023-07-20T13:26:47;1.37;;;1.23;;
6661;SDS011;3367;48.714;8.994;2023-07-20T13:29:14;1.37;;;1.27;;
6661;SDS011;3367;48.714;8.994;2023-07-20T13:31:42;1.10;;;1.00;;
6661;SDS011;3367;48.714;8.994;2023-07-20T13:34:09;1.90;;;1.53;;
6661;SDS011;3367;48.714;8.994;2023-07-20T13:36:35;2.93;;;1.30;;
6661;SDS011;3367;48.714;8.994;2023-07-20T13:39:02;1.20;;;1.20;;
6661;SDS011;3367;48.714;8.994;2023-07-20T13:41:30;4.00;;;1.50;;
6661;SDS011;3367;48.714;8.994;2023-07-20T13:43:58;1.83;;;1.60;;
6661;SDS011;3367;48.714;8.994;2023-07-20T13:46:25;2.67;;;1.80;;
6661;SDS011;3367;48.714;8.994;2023-07-20T13:48:52;1.67;;;1.43;;
6661;SDS011;3367;48.714;8.994;2023-07-20T13:51:18;1.40;;;1.30;;
6661;SDS011;3367;48.714;8.994;2023-07-20T13:53:45;2.87;;;1.80;;
6661;SDS011;3367;48.714;8.994;2023-07-20T13:56:12;2.73;;;1.40;;
6661;SDS011;3367;48.714;8.994;2023-07-20T13:58:39;1.50;;;1.40;;
6661;SDS011;3367;48.714;8.994;2023-07-20T14:01:07;6.20;;;1.20;;
6661;SDS011;3367;48.714;8.994;2023-07-20T14:03:33;2.30;;;1.50;;
6661;SDS011;3367;48.714;8.994;2023-07-20T14:06:00;2.70;;;1.50;;
6661;SDS011;3367;48.714;8.994;2023-07-20T14:08:27;1.97;;;1.17;;
6661;SDS011;3367;48.714;8.994;2023-07-20T14:10:55;1.67;;;1.57;;
6661;SDS011;3367;48.714;8.994;2023-07-20T14:13:21;7.43;;;1.50;;
6661;SDS011;3367;48.714;8.994;2023-07-20T14:15:48;2.40;;;1.30;;
6661;SDS011;3367;48.714;8.994;2023-07-20T14:18:17;2.60;;;1.27;;
6661;SDS011;3367;48.714;8.994;2023-07-20T14:20:44;1.63;;;1.53;;
6661;SDS011;3367;48.714;8.994;2023-07-20T14:23:10;1.80;;;1.50;;
6661;SDS011;3367;48.714;8.994;2023-07-20T14:25:37;4.70;;;1.20;;
6661;SDS011;3367;48.714;8.994;2023-07-20T14:28:04;2.17;;;1.33;;
6661;SDS011;3367;48.714;8.994;2023-07-20T14:30:31;1.43;;;1.33;;
6661;SDS011;3367;48.714;8.994;2023-07-20T14:32:57;1.40;;;1.30;;
6661;SDS011;3367;48.714;8.994;2023-07-20T14:35:25;1.30;;;1.10;;
6661;SDS011;3367;48.714;8.994;2023-07-20T14:37:52;1.70;;;1.60;;
6661;SDS011;3367;48.714;8.994;2023-07-20T14:40:19;1.23;;;1.07;;
6661;SDS011;3367;48.714;8.994;2023-07-20T14:42:46;2.20;;;1.67;;
6661;SDS011;3367;48.714;8.994;2023-07-20T14:45:12;3.43;;;1.73;;
6661;SDS011;3367;48.714;8.994;2023-07-20T14:47:39;1.43;;;1.30;;
6661;SDS011;3367;48.714;8.994;2023-07-20T14:50:08;3.47;;;1.30;;
6661;SDS011;3367;48.714;8.994;2023-07-20T14:52:37;1.67;;;1.50;;
6661;SDS011;3367;48.714;8.994;2023-07-20T14:55:04;2.10;;;1.70;;
6661;SDS011;3367;48.714;8.994;2023-07-20T14:57:32;1.50;;;1.40;;
6661;SDS011;3367;48.714;8.994;2023-07-20T14:59:58;3.30;;;1.87;;
6661;SDS011;3367;48.714;8.994;2023-07-20T15:02:25;1.30;;;1.20;;
6661;SDS011;3367;48.714;8.994;2023-07-20T15:04:52;1.53;;;1.37;;
6661;SDS011;3367;48.714;8.994;2023-07-20T15:07:21;2.47;;;1.47;;
6661;SDS011;3367;48.714;8.994;2023-07-20T15:09:49;1.80;;;1.30;;
6661;SDS011;3367;48.714;8.994;2023-07-20T15:12:16;2.40;;;1.27;;
6661;SDS011;3367;48.714;8.994;2023-07-20T15:14:43;1.60;;;1.50;;
6661;SDS011;3367;48.714;8.994;2023-07-20T15:17:15;1.73;;;1.50;;
6661;SDS011;3367;48.714;8.994;2023-07-20T15:19:42;1.50;;;1.40;;
6661;SDS011;3367;48.714;8.994;2023-07-20T15:22:09;1.17;;;1.07;;
6661;SDS011;3367;48.714;8.994;2023-07-20T15:24:36;1.47;;;1.37;;